Strona główna
METAR-TAF:

METAR-TAF

Lotnisko :

Butler, Pensylwania, Stany Zjednoczone

Szerokość geograficzna: 40-47N, Długość geograficzna: 079-57W, wysokość: 380 m

Aktualna obserwacja pogody

Raport powstał 23 minut temu, godzina 00:31 UTC
Wiatr 4 kt od wschodnio-południowy wschód
Temperatura 12°C
Wilgotność 62%
Ciśnienie 1016 hPa
Widzialność: 16.1 km
bezchmurnie

METAR: KBTP 050031Z AUTO 12004KT 10SM CLR 12/05 A3001 RMK AO2

czas: 20:54 (00:54 UTC)


TAF: brakujący

Obserwacja i prognoza pogody dla ponad 4000 lotnisk (raport METAR i TAF).

Dostępne stacje oznaczono żółtymi i czerwonymi punktami na mapie.

Najedź kursorem aby zobaczyć nazwę stacji.

Kliknij aby zobaczyć obserwacje i prognozy pogody.

Aby zmienić mapę: kliknij na zielony przycisk z czarnym krzyżykiem, aby powiększyć; na zielony przycisk z myślnikiem, aby pomniejszyć; na zielone strzałki, aby przejść do map sąsiednich.


METAR-TAF: